createdAt,value
2023-01-29T00:02:30.628Z,7.93
2023-01-29T00:05:32.552Z,7.93
2023-01-29T00:08:35.841Z,7.63
2023-01-29T00:11:37.805Z,7.75
2023-01-29T00:14:39.732Z,7.60
2023-01-29T00:17:41.614Z,7.53
2023-01-29T00:20:44.099Z,7.25
2023-01-29T00:23:46.307Z,7.32
2023-01-29T00:26:50.132Z,6.88
2023-01-29T00:30:08.958Z,7.78
2023-01-29T00:33:12.025Z,7.22
2023-01-29T00:39:16.789Z,8.00
2023-01-29T00:42:37.121Z,7.47
2023-01-29T00:45:39.080Z,7.13
2023-01-29T00:48:41.143Z,7.90
2023-01-29T00:51:43.540Z,9.93
2023-01-29T00:54:45.457Z,8.27
2023-01-29T00:57:47.553Z,7.13
2023-01-29T01:00:49.608Z,7.43
2023-01-29T01:03:51.521Z,7.80
2023-01-29T01:06:53.435Z,7.20
2023-01-29T01:10:14.120Z,7.15
2023-01-29T01:13:16.216Z,7.60
2023-01-29T01:16:19.095Z,7.18
2023-01-29T01:19:21.088Z,7.32
2023-01-29T01:22:23.396Z,7.60
2023-01-29T01:25:26.860Z,7.63
2023-01-29T01:28:29.114Z,7.45
2023-01-29T01:31:31.129Z,6.15
2023-01-29T01:34:33.461Z,7.18
2023-01-29T01:37:37.691Z,7.97
2023-01-29T01:40:45.465Z,7.50
2023-01-29T01:44:07.985Z,6.90
2023-01-29T01:47:09.961Z,7.20
2023-01-29T01:50:30.069Z,7.43
2023-01-29T01:53:41.715Z,7.38
2023-01-29T01:56:50.289Z,7.35
2023-01-29T02:00:11.263Z,7.00
2023-01-29T02:03:36.987Z,7.43
2023-01-29T02:06:59.625Z,7.47
2023-01-29T02:10:10.124Z,7.28
2023-01-29T02:13:13.081Z,7.20
2023-01-29T02:19:27.809Z,6.47
2023-01-29T02:22:56.853Z,7.18
2023-01-29T02:26:11.167Z,7.55
2023-01-29T02:29:23.239Z,6.68
2023-01-29T02:32:41.643Z,5.70
2023-01-29T02:35:55.436Z,7.68
2023-01-29T02:39:23.509Z,7.57
2023-01-29T02:42:32.455Z,7.47
2023-01-29T02:45:52.727Z,7.70
2023-01-29T02:49:02.064Z,7.13
2023-01-29T02:52:21.589Z,7.03
2023-01-29T02:55:39.149Z,7.40
2023-01-29T02:58:47.974Z,7.70
2023-01-29T03:01:57.052Z,6.72
2023-01-29T03:05:01.881Z,7.07
2023-01-29T03:08:11.376Z,7.57
2023-01-29T03:11:15.084Z,7.50
2023-01-29T03:14:55.221Z,7.13
2023-01-29T03:18:02.495Z,6.90
2023-01-29T03:21:30.978Z,6.95
2023-01-29T03:24:51.634Z,6.93
2023-01-29T03:28:20.770Z,6.95
2023-01-29T03:31:44.083Z,6.63
2023-01-29T03:34:52.471Z,7.28
2023-01-29T03:37:56.943Z,7.57
2023-01-29T03:41:17.089Z,6.78
2023-01-29T03:44:49.103Z,7.22
2023-01-29T03:48:14.333Z,8.05
2023-01-29T03:51:27.253Z,6.47
2023-01-29T03:54:37.529Z,6.65
2023-01-29T03:57:50.250Z,6.88
2023-01-29T04:01:01.480Z,6.88
2023-01-29T04:04:15.136Z,6.80
2023-01-29T04:10:26.939Z,6.90
2023-01-29T04:13:33.799Z,8.52
2023-01-29T04:16:44.592Z,7.93
2023-01-29T04:19:49.804Z,9.65
2023-01-29T04:26:18.993Z,7.93
2023-01-29T04:29:30.392Z,9.77
2023-01-29T04:33:00.295Z,7.82
2023-01-29T04:36:14.451Z,7.30
2023-01-29T04:39:27.572Z,7.03
2023-01-29T04:42:40.537Z,7.85
2023-01-29T04:46:00.664Z,7.32
2023-01-29T04:49:18.496Z,7.35
2023-01-29T04:52:24.080Z,7.72
2023-01-29T04:55:36.153Z,7.13
2023-01-29T04:58:49.965Z,7.65
2023-01-29T05:01:53.286Z,10.25
2023-01-29T05:04:58.611Z,9.15
2023-01-29T05:08:00.515Z,7.15
2023-01-29T05:11:02.380Z,7.15
2023-01-29T05:14:08.119Z,8.13
2023-01-29T05:17:15.873Z,7.72
2023-01-29T05:20:18.353Z,7.10
2023-01-29T05:23:22.536Z,8.55
2023-01-29T05:26:42.999Z,8.77
2023-01-29T05:29:48.312Z,7.38
2023-01-29T05:32:50.257Z,8.13
2023-01-29T05:35:52.307Z,8.13
2023-01-29T05:38:54.163Z,7.80
2023-01-29T05:41:56.056Z,7.55
2023-01-29T05:44:57.960Z,7.28
2023-01-29T05:48:00.696Z,7.90
2023-01-29T05:51:04.792Z,8.43
2023-01-29T05:54:06.755Z,8.00
2023-01-29T05:57:08.687Z,8.60
2023-01-29T06:00:13.183Z,8.02
2023-01-29T06:03:15.844Z,8.32
2023-01-29T06:06:18.081Z,7.75
2023-01-29T06:09:20.082Z,8.13
2023-01-29T06:12:22.109Z,6.70
2023-01-29T06:15:26.462Z,8.48
2023-01-29T06:18:28.485Z,8.75
2023-01-29T06:21:30.321Z,8.35
2023-01-29T06:24:32.948Z,7.97
2023-01-29T06:27:34.867Z,9.18
2023-01-29T06:30:36.870Z,8.30
2023-01-29T06:33:38.816Z,8.83
2023-01-29T06:36:41.954Z,8.50
2023-01-29T06:39:44.117Z,9.20
2023-01-29T06:42:46.983Z,8.82
2023-01-29T06:45:56.799Z,8.35
2023-01-29T06:49:00.798Z,9.35
2023-01-29T06:52:02.706Z,9.65
2023-01-29T06:55:04.948Z,9.30
2023-01-29T06:58:08.625Z,9.23
2023-01-29T07:01:19.702Z,9.27
2023-01-29T07:04:31.187Z,9.88
2023-01-29T07:07:36.784Z,9.77
2023-01-29T07:10:38.703Z,9.50
2023-01-29T07:13:40.586Z,10.40
2023-01-29T07:16:42.575Z,9.68
2023-01-29T07:19:44.468Z,9.73
2023-01-29T07:22:46.381Z,10.40
2023-01-29T07:25:49.942Z,11.02
2023-01-29T07:28:51.981Z,9.90
2023-01-29T07:31:53.993Z,9.97
2023-01-29T07:34:55.906Z,9.97
2023-01-29T07:37:58.316Z,10.73
2023-01-29T07:41:01.349Z,10.88
2023-01-29T07:44:05.005Z,10.70
2023-01-29T07:47:06.955Z,10.45
2023-01-29T07:50:09.558Z,11.00
2023-01-29T07:53:15.276Z,11.02
2023-01-29T07:56:17.189Z,18.10
2023-01-29T07:59:19.072Z,41.75
2023-01-29T08:02:20.951Z,33.13
2023-01-29T08:05:22.894Z,17.55
2023-01-29T08:08:25.891Z,39.75
2023-01-29T08:14:29.634Z,29.67
2023-01-29T08:17:31.581Z,18.33
2023-01-29T08:20:33.551Z,16.45
2023-01-29T08:23:35.509Z,14.88
2023-01-29T08:26:37.409Z,14.23
2023-01-29T08:29:39.368Z,17.00
2023-01-29T08:32:41.229Z,17.63
2023-01-29T08:35:43.222Z,19.55
2023-01-29T08:38:45.232Z,22.00
2023-01-29T08:41:47.128Z,27.07
2023-01-29T08:44:48.974Z,16.35
2023-01-29T08:47:51.082Z,16.00
2023-01-29T08:50:53.123Z,32.23
2023-01-29T08:53:55.077Z,30.73
2023-01-29T08:56:56.987Z,17.73
2023-01-29T08:59:59.026Z,13.13
2023-01-29T09:03:01.135Z,19.10
2023-01-29T09:06:03.821Z,22.77
2023-01-29T09:09:05.759Z,25.38
2023-01-29T09:12:07.807Z,16.23
2023-01-29T09:15:10.178Z,19.77
2023-01-29T09:18:12.103Z,13.95
2023-01-29T09:21:13.922Z,14.07
2023-01-29T09:24:16.074Z,16.85
2023-01-29T09:27:18.048Z,13.67
2023-01-29T09:30:19.932Z,14.93
2023-01-29T09:33:21.953Z,13.02
2023-01-29T09:36:23.922Z,15.27
2023-01-29T09:39:26.994Z,13.77
2023-01-29T09:43:21.226Z,15.07
2023-01-29T09:46:30.981Z,13.05
2023-01-29T09:49:39.526Z,41.40
2023-01-29T09:52:48.130Z,17.95
2023-01-29T09:55:55.609Z,14.35
2023-01-29T09:59:01.381Z,23.92
2023-01-29T10:02:22.631Z,17.33
2023-01-29T10:05:40.896Z,13.68
2023-01-29T10:08:54.784Z,13.25
2023-01-29T10:12:22.826Z,13.98
2023-01-29T10:15:45.253Z,13.45
2023-01-29T10:19:09.079Z,14.13
2023-01-29T10:22:25.772Z,16.13
2023-01-29T10:25:28.151Z,12.45
2023-01-29T10:28:46.615Z,12.52
2023-01-29T10:31:55.550Z,13.52
2023-01-29T10:35:21.687Z,12.10
2023-01-29T10:38:44.371Z,12.48
2023-01-29T10:42:14.191Z,13.57
2023-01-29T10:45:46.473Z,13.05
2023-01-29T10:48:54.417Z,13.88
2023-01-29T10:51:56.201Z,13.18
2023-01-29T10:55:20.009Z,13.57
2023-01-29T10:58:36.715Z,42.25
2023-01-29T11:01:38.708Z,23.45
2023-01-29T11:04:40.668Z,15.80
2023-01-29T11:07:42.768Z,14.70
2023-01-29T11:11:09.808Z,15.57
2023-01-29T11:14:22.688Z,15.77
2023-01-29T11:17:26.155Z,15.45
2023-01-29T11:21:02.960Z,19.92
2023-01-29T11:24:07.367Z,23.02
2023-01-29T11:27:33.255Z,16.15
2023-01-29T11:30:39.435Z,16.98
2023-01-29T11:33:41.582Z,16.17
2023-01-29T11:36:45.069Z,16.10
2023-01-29T11:39:50.692Z,16.88
2023-01-29T11:42:53.846Z,16.05
2023-01-29T11:45:59.549Z,17.60
2023-01-29T11:49:14.382Z,14.48
2023-01-29T11:52:25.407Z,15.52
2023-01-29T11:55:49.439Z,15.70
2023-01-29T11:58:55.600Z,14.98
2023-01-29T12:02:06.762Z,15.48
2023-01-29T12:05:18.837Z,15.55
2023-01-29T12:08:23.622Z,17.60
2023-01-29T12:11:31.786Z,17.15
2023-01-29T12:14:34.423Z,16.33
2023-01-29T12:17:39.184Z,15.82
2023-01-29T12:20:56.293Z,16.50
2023-01-29T12:24:02.451Z,19.55
2023-01-29T12:27:22.639Z,17.98
2023-01-29T12:30:54.918Z,16.33
2023-01-29T12:34:15.665Z,19.02
2023-01-29T12:37:18.140Z,17.05
2023-01-29T12:40:25.384Z,16.58
2023-01-29T12:43:42.343Z,19.85
2023-01-29T12:46:50.663Z,19.38
2023-01-29T12:49:57.204Z,18.48
2023-01-29T12:53:25.368Z,18.55
2023-01-29T12:56:33.114Z,16.35
2023-01-29T13:00:01.774Z,16.92
2023-01-29T13:03:25.712Z,15.07
2023-01-29T13:06:36.682Z,14.43
2023-01-29T13:09:41.953Z,14.40
2023-01-29T13:12:57.559Z,14.23
2023-01-29T13:16:01.576Z,11.85
2023-01-29T13:19:07.537Z,11.80
2023-01-29T13:22:21.996Z,11.95
2023-01-29T13:25:24.174Z,14.43
2023-01-29T13:28:27.849Z,14.43
2023-01-29T13:31:29.859Z,14.32
2023-01-29T13:34:35.560Z,15.60
2023-01-29T13:37:46.499Z,19.75
2023-01-29T13:40:52.073Z,14.07
2023-01-29T13:43:54.113Z,13.35
2023-01-29T13:46:58.206Z,14.90
2023-01-29T13:50:21.350Z,14.45
2023-01-29T13:53:27.160Z,14.25
2023-01-29T13:56:33.513Z,14.27
2023-01-29T14:00:05.397Z,13.68
2023-01-29T14:03:11.867Z,13.80
2023-01-29T14:06:41.616Z,16.08
2023-01-29T14:09:43.459Z,14.27
2023-01-29T14:12:46.397Z,13.10
2023-01-29T14:15:57.434Z,13.45
2023-01-29T14:19:02.332Z,13.77
2023-01-29T14:22:05.664Z,12.93
2023-01-29T14:25:16.408Z,12.52
2023-01-29T14:28:25.219Z,13.20
2023-01-29T14:31:31.477Z,12.88
2023-01-29T14:34:36.956Z,12.10
2023-01-29T14:37:41.154Z,13.80
2023-01-29T14:40:46.767Z,13.85
2023-01-29T14:43:49.109Z,14.65
2023-01-29T14:46:51.118Z,12.27
2023-01-29T14:50:03.653Z,13.70
2023-01-29T14:53:14.684Z,10.80
2023-01-29T14:56:24.679Z,13.10
2023-01-29T14:59:31.569Z,12.05
2023-01-29T15:02:43.213Z,12.52
2023-01-29T15:05:46.943Z,13.88
2023-01-29T15:09:11.152Z,17.08
2023-01-29T15:12:28.655Z,14.23
2023-01-29T15:15:46.277Z,16.30
2023-01-29T15:18:51.228Z,12.95
2023-01-29T15:22:09.375Z,14.73
2023-01-29T15:25:15.652Z,14.43
2023-01-29T15:28:17.786Z,12.60
2023-01-29T15:31:20.463Z,16.20
2023-01-29T15:34:22.985Z,13.00
2023-01-29T15:37:33.303Z,13.00
2023-01-29T15:40:35.291Z,13.30
2023-01-29T15:43:44.507Z,12.80
2023-01-29T15:46:52.713Z,13.90
2023-01-29T15:49:57.331Z,16.00
2023-01-29T15:53:03.815Z,13.38
2023-01-29T15:56:10.736Z,12.65
2023-01-29T15:59:23.447Z,20.67
2023-01-29T16:02:28.286Z,12.90
2023-01-29T16:05:33.107Z,13.85
2023-01-29T16:08:35.822Z,12.73
2023-01-29T16:11:37.982Z,14.82
2023-01-29T16:14:41.585Z,15.10
2023-01-29T16:17:45.779Z,14.10
2023-01-29T16:20:53.197Z,13.02
2023-01-29T16:24:15.927Z,15.18
2023-01-29T16:27:17.849Z,14.55
2023-01-29T16:30:20.034Z,12.45
2023-01-29T16:33:21.902Z,12.93
2023-01-29T16:36:27.657Z,18.23
2023-01-29T16:39:37.898Z,21.55
2023-01-29T16:42:41.656Z,14.90
2023-01-29T16:46:01.286Z,14.52
2023-01-29T16:49:25.772Z,14.60
2023-01-29T16:52:29.576Z,16.23
2023-01-29T16:55:43.703Z,17.48
2023-01-29T16:58:53.402Z,13.98
2023-01-29T17:01:56.179Z,12.18
2023-01-29T17:05:02.647Z,11.55
2023-01-29T17:08:05.849Z,12.43
2023-01-29T17:11:08.328Z,12.00
2023-01-29T17:14:18.636Z,14.13
2023-01-29T17:17:20.543Z,14.77
2023-01-29T17:20:23.020Z,17.00
2023-01-29T17:23:25.017Z,16.65
2023-01-29T17:26:27.007Z,15.40
2023-01-29T17:29:31.771Z,15.20
2023-01-29T17:32:43.945Z,14.90
2023-01-29T17:35:47.333Z,14.73
2023-01-29T17:38:49.200Z,14.77
2023-01-29T17:41:56.171Z,19.35
2023-01-29T17:44:58.077Z,13.50
2023-01-29T17:48:00.009Z,16.45
2023-01-29T17:51:04.634Z,17.88
2023-01-29T17:54:06.543Z,13.82
2023-01-29T17:57:18.411Z,12.88
2023-01-29T18:00:23.957Z,14.40
2023-01-29T18:03:27.543Z,15.43
2023-01-29T18:06:30.083Z,18.10
2023-01-29T18:09:32.052Z,14.25
2023-01-29T18:12:33.952Z,13.48
2023-01-29T18:15:35.943Z,27.13
2023-01-29T18:18:37.837Z,22.57
2023-01-29T18:21:39.725Z,17.98
2023-01-29T18:24:41.613Z,14.35
2023-01-29T18:27:43.854Z,12.65
2023-01-29T18:30:47.539Z,8.50
2023-01-29T18:33:49.720Z,12.48
2023-01-29T18:36:51.611Z,10.05
2023-01-29T18:39:53.920Z,10.48
2023-01-29T18:42:55.899Z,10.23
2023-01-29T18:45:59.958Z,9.30
2023-01-29T18:49:01.909Z,18.05
2023-01-29T18:52:03.921Z,10.73
2023-01-29T18:55:06.402Z,9.53
2023-01-29T18:58:26.211Z,10.20
2023-01-29T19:01:32.077Z,9.18
2023-01-29T19:04:34.016Z,9.25
2023-01-29T19:07:36.114Z,9.95
2023-01-29T19:10:38.152Z,11.10
2023-01-29T19:13:40.981Z,9.98
2023-01-29T19:16:43.783Z,11.93
2023-01-29T19:19:45.836Z,29.73
2023-01-29T19:22:48.399Z,24.25
2023-01-29T19:25:50.389Z,22.20
2023-01-29T19:28:52.247Z,17.80
2023-01-29T19:31:54.197Z,21.33
2023-01-29T19:34:57.837Z,31.75
2023-01-29T19:38:00.884Z,16.05
2023-01-29T19:44:05.008Z,9.85
2023-01-29T19:47:07.014Z,10.47
2023-01-29T19:50:10.582Z,6.28
2023-01-29T19:53:12.507Z,8.43
2023-01-29T19:56:16.568Z,8.98
2023-01-29T19:59:18.882Z,8.23
2023-01-29T20:02:20.864Z,15.13
2023-01-29T20:05:26.262Z,15.02
2023-01-29T20:08:28.127Z,29.77
2023-01-29T20:11:31.146Z,9.88
2023-01-29T20:17:34.825Z,12.27
2023-01-29T20:20:39.829Z,15.50
2023-01-29T20:23:43.359Z,27.35
2023-01-29T20:26:46.866Z,21.95
2023-01-29T20:29:48.865Z,16.17
2023-01-29T20:32:50.782Z,16.60
2023-01-29T20:36:03.240Z,19.05
2023-01-29T20:39:05.223Z,13.77
2023-01-29T20:42:07.857Z,11.60
2023-01-29T20:45:10.192Z,10.68
2023-01-29T20:48:12.389Z,19.63
2023-01-29T20:51:17.767Z,22.20
2023-01-29T20:54:19.830Z,22.02
2023-01-29T20:57:21.812Z,21.00
2023-01-29T21:00:23.871Z,45.78
2023-01-29T21:03:28.465Z,27.60
2023-01-29T21:06:30.402Z,40.63
2023-01-29T21:09:32.341Z,27.15
2023-01-29T21:12:35.113Z,33.90
2023-01-29T21:15:37.088Z,50.83
2023-01-29T21:18:39.100Z,59.73
2023-01-29T21:21:40.963Z,57.00
2023-01-29T21:24:42.969Z,27.23
2023-01-29T21:27:45.550Z,24.50
2023-01-29T21:30:48.007Z,91.97
2023-01-29T21:33:50.096Z,94.60
2023-01-29T21:36:52.129Z,94.30
2023-01-29T21:39:54.042Z,65.50
2023-01-29T21:43:12.227Z,56.45
2023-01-29T21:46:15.200Z,51.85
2023-01-29T21:52:20.989Z,31.95
2023-01-29T21:55:25.556Z,26.73
2023-01-29T21:58:27.751Z,14.68
2023-01-29T22:01:37.515Z,13.32
2023-01-29T22:04:42.029Z,31.15
2023-01-29T22:07:44.502Z,30.60
2023-01-29T22:10:46.552Z,54.42
2023-01-29T22:13:48.591Z,44.88
2023-01-29T22:16:50.536Z,131.50
2023-01-29T22:19:53.617Z,88.78
2023-01-29T22:23:00.528Z,96.97
2023-01-29T22:26:03.909Z,41.90
2023-01-29T22:29:05.762Z,27.65
2023-01-29T22:32:08.330Z,38.08
2023-01-29T22:35:11.250Z,46.42
2023-01-29T22:38:13.114Z,46.40
2023-01-29T22:41:15.379Z,44.85
2023-01-29T22:44:17.304Z,25.27
2023-01-29T22:47:19.289Z,11.18
2023-01-29T22:50:22.241Z,12.23
2023-01-29T22:56:27.532Z,23.08
2023-01-29T22:59:30.208Z,27.02
2023-01-29T23:02:32.897Z,43.00
2023-01-29T23:05:34.804Z,21.77
2023-01-29T23:08:36.701Z,13.32
2023-01-29T23:11:38.652Z,11.93
2023-01-29T23:14:40.870Z,14.20
2023-01-29T23:17:42.808Z,17.48
2023-01-29T23:20:44.648Z,13.67
2023-01-29T23:23:47.339Z,13.20
2023-01-29T23:27:07.533Z,16.27
2023-01-29T23:30:09.974Z,16.83
2023-01-29T23:33:12.251Z,14.80
2023-01-29T23:36:14.541Z,14.23
2023-01-29T23:39:16.706Z,15.07
2023-01-29T23:42:18.721Z,15.05
2023-01-29T23:45:20.558Z,13.43
2023-01-29T23:48:22.864Z,14.18
2023-01-29T23:51:24.757Z,11.48
2023-01-29T23:54:26.906Z,13.77
2023-01-29T23:57:28.759Z,12.35
